Terminal Aerodrome Forecast
Issued by NWS

Home | Current Version | Previous Version | Text Only | Print | Product List | Glossary On
Versions: 1 2 3 4 5 6 7 8 9 10 11 12 13 14 15 16 17 18
000
FTUS43 KIND 010500
TAFHUF
TAF
KHUF 010528Z 0106/0206 03005KT P6SM SCT250
     FM010800 00000KT 3SM BR SCT250
      TEMPO 0109/0112 1SM BR
     FM011400 12005KT P6SM SCT250=

USA.gov is the U.S. government's official web portal to all federal, state and local government web resources and services.